sensor_id;sensor_type;location;lat;lon;timestamp;pressure;altitude;pressure_sealevel;temperature;humidity
47716;BME280;33476;50.984;3.538;2023-04-01T00:01:53;99470.50;;;12.57;76.10
47716;BME280;33476;50.984;3.538;2023-04-01T00:04:19;99468.84;;;12.56;76.10
47716;BME280;33476;50.984;3.538;2023-04-01T00:06:45;99474.19;;;12.54;76.19
47716;BME280;33476;50.984;3.538;2023-04-01T00:09:12;99478.59;;;12.54;76.14
47716;BME280;33476;50.984;3.538;2023-04-01T00:11:37;99478.72;;;12.52;76.37
47716;BME280;33476;50.984;3.538;2023-04-01T00:14:03;99483.97;;;12.52;76.13
47716;BME280;33476;50.984;3.538;2023-04-01T00:16:29;99482.31;;;12.51;76.21
47716;BME280;33476;50.984;3.538;2023-04-01T00:18:55;99486.72;;;12.51;76.28
47716;BME280;33476;50.984;3.538;2023-04-01T00:21:21;99489.41;;;12.49;76.48
47716;BME280;33476;50.984;3.538;2023-04-01T00:23:47;99491.94;;;12.51;76.25
47716;BME280;33476;50.984;3.538;2023-04-01T00:26:13;99492.16;;;12.48;76.36
47716;BME280;33476;50.984;3.538;2023-04-01T00:28:39;99500.63;;;12.51;76.45
47716;BME280;33476;50.984;3.538;2023-04-01T00:31:09;99494.66;;;12.49;76.52
47716;BME280;33476;50.984;3.538;2023-04-01T00:33:35;99506.47;;;12.55;76.20
47716;BME280;33476;50.984;3.538;2023-04-01T00:36:14;99521.34;;;12.54;76.19
47716;BME280;33476;50.984;3.538;2023-04-01T00:38:40;99508.25;;;12.54;76.02
47716;BME280;33476;50.984;3.538;2023-04-01T00:41:07;99506.47;;;12.55;76.35
47716;BME280;33476;50.984;3.538;2023-04-01T00:43:32;99521.34;;;12.54;76.20
47716;BME280;33476;50.984;3.538;2023-04-01T00:45:58;99520.03;;;12.60;76.32
47716;BME280;33476;50.984;3.538;2023-04-01T00:48:27;99514.94;;;12.58;76.03
47716;BME280;33476;50.984;3.538;2023-04-01T00:51:27;99521.84;;;12.59;76.08
47716;BME280;33476;50.984;3.538;2023-04-01T00:53:55;99530.06;;;12.66;75.56
47716;BME280;33476;50.984;3.538;2023-04-01T00:56:24;99538.13;;;12.63;75.44
47716;BME280;33476;50.984;3.538;2023-04-01T00:58:56;99538.13;;;12.63;75.58
47716;BME280;33476;50.984;3.538;2023-04-01T01:01:24;99539.91;;;12.62;75.87
47716;BME280;33476;50.984;3.538;2023-04-01T01:03:50;99548.25;;;12.56;76.06
47716;BME280;33476;50.984;3.538;2023-04-01T01:11:24;99550.59;;;12.48;76.08
47716;BME280;33476;50.984;3.538;2023-04-01T01:13:59;99553.34;;;12.47;76.20
47716;BME280;33476;50.984;3.538;2023-04-01T01:16:30;99548.81;;;12.49;75.89
47716;BME280;33476;50.984;3.538;2023-04-01T01:24:22;99559.66;;;12.44;75.38
47716;BME280;33476;50.984;3.538;2023-04-01T01:27:05;99562.28;;;12.44;75.79
47716;BME280;33476;50.984;3.538;2023-04-01T01:29:42;99550.72;;;12.35;75.53
47716;BME280;33476;50.984;3.538;2023-04-01T01:37:38;99568.41;;;12.32;75.66
47716;BME280;33476;50.984;3.538;2023-04-01T01:40:07;99570.31;;;12.30;75.84
47716;BME280;33476;50.984;3.538;2023-04-01T01:42:38;99567.25;;;12.25;76.11
47716;BME280;33476;50.984;3.538;2023-04-01T01:45:06;99574.47;;;12.21;76.32
47716;BME280;33476;50.984;3.538;2023-04-01T01:47:33;99575.19;;;12.23;76.39
47716;BME280;33476;50.984;3.538;2023-04-01T01:49:59;99581.88;;;12.27;76.29
47716;BME280;33476;50.984;3.538;2023-04-01T01:52:27;99576.75;;;12.26;76.40
47716;BME280;33476;50.984;3.538;2023-04-01T01:54:57;99584.69;;;12.24;76.40
47716;BME280;33476;50.984;3.538;2023-04-01T01:57:32;99589.09;;;12.24;76.79
47716;BME280;33476;50.984;3.538;2023-04-01T02:00:04;99593.19;;;12.28;76.23
47716;BME280;33476;50.984;3.538;2023-04-01T02:02:39;99584.88;;;12.34;76.18
47716;BME280;33476;50.984;3.538;2023-04-01T02:05:06;99590.09;;;12.34;76.30
47716;BME280;33476;50.984;3.538;2023-04-01T02:07:35;99594.84;;;12.29;76.55
47716;BME280;33476;50.984;3.538;2023-04-01T02:10:01;99592.81;;;12.32;76.23
47716;BME280;33476;50.984;3.538;2023-04-01T02:12:28;99594.84;;;12.29;76.51
47716;BME280;33476;50.984;3.538;2023-04-01T02:15:05;99602.19;;;12.24;76.96
47716;BME280;33476;50.984;3.538;2023-04-01T02:17:33;99602.59;;;12.30;76.56
47716;BME280;33476;50.984;3.538;2023-04-01T02:20:06;99611.50;;;12.28;76.11
47716;BME280;33476;50.984;3.538;2023-04-01T02:22:35;99601.75;;;12.30;76.26
47716;BME280;33476;50.984;3.538;2023-04-01T02:25:09;99609.13;;;12.25;76.09
47716;BME280;33476;50.984;3.538;2023-04-01T02:27:35;99618.41;;;12.29;76.18
47716;BME280;33476;50.984;3.538;2023-04-01T02:30:00;99623.75;;;12.27;75.75
47716;BME280;33476;50.984;3.538;2023-04-01T02:32:27;99619.47;;;12.26;75.96
47716;BME280;33476;50.984;3.538;2023-04-01T02:34:55;99629.81;;;12.28;75.88
47716;BME280;33476;50.984;3.538;2023-04-01T02:37:21;99630.66;;;12.28;75.74
47716;BME280;33476;50.984;3.538;2023-04-01T02:39:46;99626.97;;;12.31;75.38
47716;BME280;33476;50.984;3.538;2023-04-01T02:42:13;99636.63;;;12.30;75.08
47716;BME280;33476;50.984;3.538;2023-04-01T02:44:38;99639.94;;;12.32;75.22
47716;BME280;33476;50.984;3.538;2023-04-01T02:47:04;99632.00;;;12.34;74.81
47716;BME280;33476;50.984;3.538;2023-04-01T02:49:29;99644.84;;;12.37;74.78
47716;BME280;33476;50.984;3.538;2023-04-01T02:51:54;99640.44;;;12.37;74.68
47716;BME280;33476;50.984;3.538;2023-04-01T02:54:20;99645.56;;;12.39;74.71
47716;BME280;33476;50.984;3.538;2023-04-01T02:56:45;99641.16;;;12.40;74.24
47716;BME280;33476;50.984;3.538;2023-04-01T02:59:11;99646.53;;;12.38;74.73
47716;BME280;33476;50.984;3.538;2023-04-01T03:01:37;99655.34;;;12.37;74.83
47716;BME280;33476;50.984;3.538;2023-04-01T03:04:03;99655.44;;;12.35;74.72
47716;BME280;33476;50.984;3.538;2023-04-01T03:06:28;99660.19;;;12.30;75.09
47716;BME280;33476;50.984;3.538;2023-04-01T03:08:53;99669.09;;;12.28;75.34
47716;BME280;33476;50.984;3.538;2023-04-01T03:11:19;99674.47;;;12.26;75.26
47716;BME280;33476;50.984;3.538;2023-04-01T03:13:44;99676.13;;;12.27;75.19
47716;BME280;33476;50.984;3.538;2023-04-01T03:16:10;99678.75;;;12.27;75.24
47716;BME280;33476;50.984;3.538;2023-04-01T03:18:36;99683.25;;;12.25;75.43
47716;BME280;33476;50.984;3.538;2023-04-01T03:21:17;99687.88;;;12.22;75.93
47716;BME280;33476;50.984;3.538;2023-04-01T03:23:43;99693.81;;;12.24;75.70
47716;BME280;33476;50.984;3.538;2023-04-01T03:26:08;99694.66;;;12.24;75.83
47716;BME280;33476;50.984;3.538;2023-04-01T03:28:34;99700.25;;;12.20;75.85
47716;BME280;33476;50.984;3.538;2023-04-01T03:30:59;99699.53;;;12.18;76.17
47716;BME280;33476;50.984;3.538;2023-04-01T03:33:25;99710.00;;;12.18;76.52
47716;BME280;33476;50.984;3.538;2023-04-01T03:35:50;99706.63;;;12.16;76.85
47716;BME280;33476;50.984;3.538;2023-04-01T03:38:17;99714.59;;;12.14;76.82
47716;BME280;33476;50.984;3.538;2023-04-01T03:40:43;99711.25;;;12.12;77.14
47716;BME280;33476;50.984;3.538;2023-04-01T03:43:09;99713.88;;;12.12;76.86
47716;BME280;33476;50.984;3.538;2023-04-01T03:45:35;99724.34;;;12.12;77.00
47716;BME280;33476;50.984;3.538;2023-04-01T03:48:00;99723.41;;;12.13;77.34
47716;BME280;33476;50.984;3.538;2023-04-01T03:50:26;99732.59;;;12.19;76.82
47716;BME280;33476;50.984;3.538;2023-04-01T03:52:51;99731.66;;;12.20;76.93
47716;BME280;33476;50.984;3.538;2023-04-01T03:55:16;99733.75;;;12.15;76.98
47716;BME280;33476;50.984;3.538;2023-04-01T03:57:43;99737.13;;;12.17;77.17
47716;BME280;33476;50.984;3.538;2023-04-01T04:00:09;99736.16;;;12.18;76.88
47716;BME280;33476;50.984;3.538;2023-04-01T04:02:35;99741.28;;;12.19;76.60
47716;BME280;33476;50.984;3.538;2023-04-01T04:05:01;99751.66;;;12.21;76.52
47716;BME280;33476;50.984;3.538;2023-04-01T04:07:26;99751.41;;;12.24;76.30
47716;BME280;33476;50.984;3.538;2023-04-01T04:09:51;99754.03;;;12.24;76.39
47716;BME280;33476;50.984;3.538;2023-04-01T04:12:16;99763.78;;;12.22;76.33
47716;BME280;33476;50.984;3.538;2023-04-01T04:14:42;99763.06;;;12.20;76.05
47716;BME280;33476;50.984;3.538;2023-04-01T04:17:10;99770.91;;;12.20;76.17
47716;BME280;33476;50.984;3.538;2023-04-01T04:19:41;99764.63;;;12.22;75.88
47716;BME280;33476;50.984;3.538;2023-04-01T04:22:06;99764.50;;;12.24;75.81
47716;BME280;33476;50.984;3.538;2023-04-01T04:24:34;99780.22;;;12.24;75.82
47716;BME280;33476;50.984;3.538;2023-04-01T04:27:00;99775.09;;;12.22;75.53
47716;BME280;33476;50.984;3.538;2023-04-01T04:29:25;99771.88;;;12.19;75.75
47716;BME280;33476;50.984;3.538;2023-04-01T04:31:50;99779.72;;;12.19;75.61
47716;BME280;33476;50.984;3.538;2023-04-01T04:34:16;99787.69;;;12.17;75.52
47716;BME280;33476;50.984;3.538;2023-04-01T04:36:41;99793.84;;;12.16;75.58
47716;BME280;33476;50.984;3.538;2023-04-01T04:39:06;99792.91;;;12.17;75.44
47716;BME280;33476;50.984;3.538;2023-04-01T04:41:32;99780.66;;;12.18;75.63
47716;BME280;33476;50.984;3.538;2023-04-01T04:43:57;99785.78;;;12.19;75.26
47716;BME280;33476;50.984;3.538;2023-04-01T04:46:24;99789.00;;;12.23;74.85
47716;BME280;33476;50.984;3.538;2023-04-01T04:48:49;99796.75;;;12.24;75.23
47716;BME280;33476;50.984;3.538;2023-04-01T04:51:16;99796.88;;;12.23;75.22
47716;BME280;33476;50.984;3.538;2023-04-01T04:53:42;99796.75;;;12.24;75.15
47716;BME280;33476;50.984;3.538;2023-04-01T04:56:08;99806.38;;;12.24;74.95
47716;BME280;33476;50.984;3.538;2023-04-01T04:58:34;99806.63;;;12.21;74.77
47716;BME280;33476;50.984;3.538;2023-04-01T05:01:05;99807.69;;;12.18;74.67
47716;BME280;33476;50.984;3.538;2023-04-01T05:03:31;99820.44;;;12.23;74.56
47716;BME280;33476;50.984;3.538;2023-04-01T05:05:56;99820.22;;;12.26;74.62
47716;BME280;33476;50.984;3.538;2023-04-01T05:08:22;99818.34;;;12.28;74.46
47716;BME280;33476;50.984;3.538;2023-04-01T05:10:47;99827.13;;;12.27;74.33
47716;BME280;33476;50.984;3.538;2023-04-01T05:13:12;99839.50;;;12.25;74.49
47716;BME280;33476;50.984;3.538;2023-04-01T05:15:38;99840.53;;;12.22;74.16
47716;BME280;33476;50.984;3.538;2023-04-01T05:18:03;99843.28;;;12.21;74.56
47716;BME280;33476;50.984;3.538;2023-04-01T05:20:29;99851.84;;;12.23;74.41
47716;BME280;33476;50.984;3.538;2023-04-01T05:22:58;99844.09;;;12.21;74.20
47716;BME280;33476;50.984;3.538;2023-04-01T05:25:24;99849.97;;;12.25;74.12
47716;BME280;33476;50.984;3.538;2023-04-01T05:27:50;99857.84;;;12.25;74.08
47716;BME280;33476;50.984;3.538;2023-04-01T05:30:16;99854.47;;;12.23;74.09
47716;BME280;33476;50.984;3.538;2023-04-01T05:32:41;99862.31;;;12.23;74.45
47716;BME280;33476;50.984;3.538;2023-04-01T05:35:07;99866.53;;;12.25;74.14
47716;BME280;33476;50.984;3.538;2023-04-01T05:37:34;99868.38;;;12.23;74.24
47716;BME280;33476;50.984;3.538;2023-04-01T05:39:59;99872.69;;;12.24;74.41
47716;BME280;33476;50.984;3.538;2023-04-01T05:42:25;99865.78;;;12.23;74.44
47716;BME280;33476;50.984;3.538;2023-04-01T05:44:50;99878.13;;;12.21;74.57
47716;BME280;33476;50.984;3.538;2023-04-01T05:47:16;99873.31;;;12.15;74.75
47716;BME280;33476;50.984;3.538;2023-04-01T05:49:41;99878.78;;;12.12;74.99
47716;BME280;33476;50.984;3.538;2023-04-01T05:52:06;99878.16;;;12.08;75.03
47716;BME280;33476;50.984;3.538;2023-04-01T05:54:32;99875.75;;;12.05;75.51
47716;BME280;33476;50.984;3.538;2023-04-01T05:56:58;99884.66;;;12.03;75.57
47716;BME280;33476;50.984;3.538;2023-04-01T05:59:23;99886.44;;;12.02;75.44
47716;BME280;33476;50.984;3.538;2023-04-01T06:01:49;99890.19;;;11.98;75.64
47716;BME280;33476;50.984;3.538;2023-04-01T06:04:16;99899.81;;;11.98;75.98
47716;BME280;33476;50.984;3.538;2023-04-01T06:06:42;99902.25;;;12.01;75.77
47716;BME280;33476;50.984;3.538;2023-04-01T06:09:17;99906.84;;;11.97;75.96
47716;BME280;33476;50.984;3.538;2023-04-01T06:14:47;99909.03;;;12.03;75.75
47716;BME280;33476;50.984;3.538;2023-04-01T06:17:28;99912.38;;;12.05;75.72
47716;BME280;33476;50.984;3.538;2023-04-01T06:20:13;99907.03;;;12.07;75.73
47716;BME280;33476;50.984;3.538;2023-04-01T06:39:39;99937.00;;;12.03;76.08
47716;BME280;33476;50.984;3.538;2023-04-01T06:45:26;99939.50;;;12.04;75.80
47716;BME280;33476;50.984;3.538;2023-04-01T06:48:00;99943.59;;;12.08;75.51
47716;BME280;33476;50.984;3.538;2023-04-01T06:56:02;99949.53;;;11.98;75.83
47716;BME280;33476;50.984;3.538;2023-04-01T06:58:34;99959.06;;;11.99;75.76
47716;BME280;33476;50.984;3.538;2023-04-01T07:01:04;99958.97;;;12.00;75.59
47716;BME280;33476;50.984;3.538;2023-04-01T07:03:38;99969.63;;;11.97;75.76
47716;BME280;33476;50.984;3.538;2023-04-01T07:06:09;99962.44;;;12.01;75.57
47716;BME280;33476;50.984;3.538;2023-04-01T07:08:38;99971.97;;;12.02;75.60
47716;BME280;33476;50.984;3.538;2023-04-01T07:11:08;99964.63;;;12.07;75.61
47716;BME280;33476;50.984;3.538;2023-04-01T07:13:45;99976.03;;;12.06;75.77
47716;BME280;33476;50.984;3.538;2023-04-01T07:16:36;99977.63;;;12.08;75.55
47716;BME280;33476;50.984;3.538;2023-04-01T07:19:31;99979.47;;;12.06;75.53
47716;BME280;33476;50.984;3.538;2023-04-01T07:22:21;99976.13;;;12.04;75.66
47716;BME280;33476;50.984;3.538;2023-04-01T07:24:53;99987.16;;;12.09;75.69
47716;BME280;33476;50.984;3.538;2023-04-01T07:27:19;99987.66;;;12.15;75.52
47716;BME280;33476;50.984;3.538;2023-04-01T07:29:44;99988.41;;;12.17;75.59
47716;BME280;33476;50.984;3.538;2023-04-01T07:40:51;100001.50;;;12.17;75.43
47716;BME280;33476;50.984;3.538;2023-04-01T07:46:27;100012.19;;;12.26;75.07
47716;BME280;33476;50.984;3.538;2023-04-01T07:49:04;100006.31;;;12.23;75.59
47716;BME280;33476;50.984;3.538;2023-04-01T07:54:22;100016.16;;;12.19;75.67
47716;BME280;33476;50.984;3.538;2023-04-01T07:59:34;100028.31;;;12.33;75.31
47716;BME280;33476;50.984;3.538;2023-04-01T08:02:55;100026.72;;;12.30;75.65
47716;BME280;33476;50.984;3.538;2023-04-01T08:05:27;100033.56;;;12.33;75.41
47716;BME280;33476;50.984;3.538;2023-04-01T08:10:51;100042.78;;;12.51;74.52
47716;BME280;33476;50.984;3.538;2023-04-01T08:13:30;100048.88;;;12.52;75.06
47716;BME280;33476;50.984;3.538;2023-04-01T08:18:55;100057.16;;;12.58;75.02
47716;BME280;33476;50.984;3.538;2023-04-01T08:21:33;100056.50;;;12.55;75.65
47716;BME280;33476;50.984;3.538;2023-04-01T08:24:10;100066.97;;;12.55;75.56
47716;BME280;33476;50.984;3.538;2023-04-01T08:26:44;100067.63;;;12.58;75.66
47716;BME280;33476;50.984;3.538;2023-04-01T08:29:25;100073.59;;;12.60;75.46
47716;BME280;33476;50.984;3.538;2023-04-01T08:31:55;100071.47;;;12.65;75.49
47716;BME280;33476;50.984;3.538;2023-04-01T08:34:26;100080.09;;;12.68;75.40
47716;BME280;33476;50.984;3.538;2023-04-01T08:37:20;100085.53;;;12.64;75.52
47716;BME280;33476;50.984;3.538;2023-04-01T08:39:57;100081.03;;;12.67;75.09
47716;BME280;33476;50.984;3.538;2023-04-01T08:42:40;100093.31;;;12.66;75.14
47716;BME280;33476;50.984;3.538;2023-04-01T08:45:20;100100.28;;;12.65;75.56
47716;BME280;33476;50.984;3.538;2023-04-01T08:51:09;100105.22;;;12.70;75.46
47716;BME280;33476;50.984;3.538;2023-04-01T08:53:57;100101.66;;;12.71;75.31
47716;BME280;33476;50.984;3.538;2023-04-01T08:56:46;100110.25;;;12.73;75.20
47716;BME280;33476;50.984;3.538;2023-04-01T08:59:41;100116.34;;;12.74;75.27
47716;BME280;33476;50.984;3.538;2023-04-01T09:13:18;100117.38;;;12.71;74.72
47716;BME280;33476;50.984;3.538;2023-04-01T09:24:25;100127.06;;;12.83;74.42
47716;BME280;33476;50.984;3.538;2023-04-01T09:27:15;100127.88;;;12.84;74.52
47716;BME280;33476;50.984;3.538;2023-04-01T09:55:06;100147.69;;;12.88;74.54
47716;BME280;33476;50.984;3.538;2023-04-01T10:06:41;100159.00;;;12.88;74.28
47716;BME280;33476;50.984;3.538;2023-04-01T10:09:42;100168.47;;;12.91;74.17
47716;BME280;33476;50.984;3.538;2023-04-01T10:18:12;100175.13;;;12.82;74.47
47716;BME280;33476;50.984;3.538;2023-04-01T10:29:13;100180.38;;;12.82;73.70
47716;BME280;33476;50.984;3.538;2023-04-01T10:37:39;100195.41;;;12.93;73.93
47716;BME280;33476;50.984;3.538;2023-04-01T10:43:23;100193.63;;;12.93;73.64
47716;BME280;33476;50.984;3.538;2023-04-01T10:49:10;100203.88;;;12.97;73.23
47716;BME280;33476;50.984;3.538;2023-04-01T10:51:59;100206.31;;;13.00;72.79
47716;BME280;33476;50.984;3.538;2023-04-01T10:54:46;100205.66;;;12.96;73.05
47716;BME280;33476;50.984;3.538;2023-04-01T11:00:39;100208.41;;;12.94;73.43
47716;BME280;33476;50.984;3.538;2023-04-01T11:06:25;100214.38;;;12.97;73.24
47716;BME280;33476;50.984;3.538;2023-04-01T11:18:22;100217.22;;;12.93;72.61
47716;BME280;33476;50.984;3.538;2023-04-01T11:21:06;100215.44;;;12.94;72.21
47716;BME280;33476;50.984;3.538;2023-04-01T11:23:43;100224.66;;;13.00;72.14
47716;BME280;33476;50.984;3.538;2023-04-01T11:31:46;100233.38;;;13.13;72.07
47716;BME280;33476;50.984;3.538;2023-04-01T11:37:35;100246.81;;;13.08;72.33
47716;BME280;33476;50.984;3.538;2023-04-01T11:40:14;100247.31;;;13.13;71.80
47716;BME280;33476;50.984;3.538;2023-04-01T11:43:08;100251.63;;;13.14;72.29
47716;BME280;33476;50.984;3.538;2023-04-01T11:45:49;100262.22;;;13.13;72.06
47716;BME280;33476;50.984;3.538;2023-04-01T11:51:41;100260.31;;;13.02;72.42
47716;BME280;33476;50.984;3.538;2023-04-01T12:05:52;100284.84;;;13.01;72.52
47716;BME280;33476;50.984;3.538;2023-04-01T12:11:20;100287.16;;;13.06;72.51
47716;BME280;33476;50.984;3.538;2023-04-01T12:13:55;100290.31;;;13.11;72.17
47716;BME280;33476;50.984;3.538;2023-04-01T12:16:29;100287.47;;;13.14;72.41
47716;BME280;33476;50.984;3.538;2023-04-01T12:19:04;100297.25;;;13.12;72.79
47716;BME280;33476;50.984;3.538;2023-04-01T12:21:50;100295.78;;;13.08;72.85
47716;BME280;33476;50.984;3.538;2023-04-01T12:24:36;100307.09;;;13.08;72.67
47716;BME280;33476;50.984;3.538;2023-04-01T12:27:29;100305.31;;;13.09;72.85
47716;BME280;33476;50.984;3.538;2023-04-01T12:32:36;100315.81;;;13.09;73.37
47716;BME280;33476;50.984;3.538;2023-04-01T12:43:28;100325.75;;;13.04;73.27
47716;BME280;33476;50.984;3.538;2023-04-01T12:46:22;100326.25;;;12.96;73.63
47716;BME280;33476;50.984;3.538;2023-04-01T12:54:30;100336.84;;;12.94;73.15
47716;BME280;33476;50.984;3.538;2023-04-01T13:02:37;100342.81;;;12.97;73.15
47716;BME280;33476;50.984;3.538;2023-04-01T13:07:59;100355.56;;;12.88;72.76
47716;BME280;33476;50.984;3.538;2023-04-01T13:15:52;100353.94;;;12.73;73.08
47716;BME280;33476;50.984;3.538;2023-04-01T13:24:01;100354.22;;;12.83;72.94
47716;BME280;33476;50.984;3.538;2023-04-01T13:29:15;100361.88;;;12.86;73.25
47716;BME280;33476;50.984;3.538;2023-04-01T13:40:23;100381.25;;;12.83;73.26
47716;BME280;33476;50.984;3.538;2023-04-01T13:42:54;100378.34;;;12.88;73.16
47716;BME280;33476;50.984;3.538;2023-04-01T13:45:33;100386.56;;;12.82;73.39
47716;BME280;33476;50.984;3.538;2023-04-01T13:51:21;100385.66;;;12.83;73.07
47716;BME280;33476;50.984;3.538;2023-04-01T13:56:57;100391.53;;;12.86;72.62
47716;BME280;33476;50.984;3.538;2023-04-01T14:08:08;100412.94;;;12.66;73.05
47716;BME280;33476;50.984;3.538;2023-04-01T14:10:43;100416.41;;;12.67;73.09
47716;BME280;33476;50.984;3.538;2023-04-01T14:19:11;100414.06;;;12.62;72.82
47716;BME280;33476;50.984;3.538;2023-04-01T14:24:17;100425.19;;;12.65;72.85
47716;BME280;33476;50.984;3.538;2023-04-01T14:27:31;100428.66;;;12.66;72.98
47716;BME280;33476;50.984;3.538;2023-04-01T14:30:08;100430.78;;;12.74;72.57
47716;BME280;33476;50.984;3.538;2023-04-01T14:33:19;100427.53;;;12.70;72.80
47716;BME280;33476;50.984;3.538;2023-04-01T14:38:54;100431.19;;;12.68;72.67
47716;BME280;33476;50.984;3.538;2023-04-01T14:41:28;100437.06;;;12.71;72.78
47716;BME280;33476;50.984;3.538;2023-04-01T14:46:56;100435.03;;;12.62;73.16
47716;BME280;33476;50.984;3.538;2023-04-01T14:49:42;100444.47;;;12.64;73.16
47716;BME280;33476;50.984;3.538;2023-04-01T14:52:31;100439.63;;;12.58;73.48
47716;BME280;33476;50.984;3.538;2023-04-01T14:55:00;100439.53;;;12.60;73.24
47716;BME280;33476;50.984;3.538;2023-04-01T14:57:31;100453.00;;;12.54;73.36
47716;BME280;33476;50.984;3.538;2023-04-01T15:03:00;100456.81;;;12.48;73.45
47716;BME280;33476;50.984;3.538;2023-04-01T15:05:52;100462.91;;;12.49;73.39
47716;BME280;33476;50.984;3.538;2023-04-01T15:16:54;100466.75;;;12.43;74.09
47716;BME280;33476;50.984;3.538;2023-04-01T15:25:05;100477.72;;;12.50;73.83
47716;BME280;33476;50.984;3.538;2023-04-01T15:30:34;100477.88;;;12.47;73.57
47716;BME280;33476;50.984;3.538;2023-04-01T15:38:49;100475.53;;;12.56;73.73
47716;BME280;33476;50.984;3.538;2023-04-01T15:43:51;100492.19;;;12.55;73.71
47716;BME280;33476;50.984;3.538;2023-04-01T15:46:50;100496.09;;;12.48;73.96
47716;BME280;33476;50.984;3.538;2023-04-01T15:49:26;100495.28;;;12.48;73.36
47716;BME280;33476;50.984;3.538;2023-04-01T15:54:47;100505.94;;;12.45;73.81
47716;BME280;33476;50.984;3.538;2023-04-01T15:57:25;100508.47;;;12.46;73.44
47716;BME280;33476;50.984;3.538;2023-04-01T15:59:54;100512.59;;;12.50;73.27
47716;BME280;33476;50.984;3.538;2023-04-01T16:07:56;100519.78;;;12.47;73.25
47716;BME280;33476;50.984;3.538;2023-04-01T16:21:01;100543.47;;;12.45;73.36
47716;BME280;33476;50.984;3.538;2023-04-01T16:33:54;100550.94;;;12.37;73.45
47716;BME280;33476;50.984;3.538;2023-04-01T16:36:32;100546.53;;;12.37;73.27
47716;BME280;33476;50.984;3.538;2023-04-01T16:47:30;100562.34;;;12.36;73.34
47716;BME280;33476;50.984;3.538;2023-04-01T16:52:48;100568.63;;;12.33;73.73
47716;BME280;33476;50.984;3.538;2023-04-01T16:55:20;100570.28;;;12.34;73.74
47716;BME280;33476;50.984;3.538;2023-04-01T16:57:51;100577.31;;;12.34;73.95
47716;BME280;33476;50.984;3.538;2023-04-01T17:03:03;100588.34;;;12.25;73.85
47716;BME280;33476;50.984;3.538;2023-04-01T17:08:32;100591.94;;;12.22;74.22
47716;BME280;33476;50.984;3.538;2023-04-01T17:13:40;100602.47;;;12.36;73.87
47716;BME280;33476;50.984;3.538;2023-04-01T17:16:50;100604.69;;;12.28;73.73
47716;BME280;33476;50.984;3.538;2023-04-01T17:24:46;100623.22;;;12.25;74.23
47716;BME280;33476;50.984;3.538;2023-04-01T17:27:29;100626.56;;;12.27;74.32
47716;BME280;33476;50.984;3.538;2023-04-01T17:36:08;100643.38;;;12.23;74.37
47716;BME280;33476;50.984;3.538;2023-04-01T17:39:09;100640.69;;;12.25;74.61
47716;BME280;33476;50.984;3.538;2023-04-01T17:41:54;100650.25;;;12.26;74.37
47716;BME280;33476;50.984;3.538;2023-04-01T17:44:45;100653.78;;;12.25;74.64
47716;BME280;33476;50.984;3.538;2023-04-01T17:47:41;100657.06;;;12.28;74.63
47716;BME280;33476;50.984;3.538;2023-04-01T17:53:21;100667.28;;;12.33;74.07
47716;BME280;33476;50.984;3.538;2023-04-01T17:56:02;100669.91;;;12.33;73.87
47716;BME280;33476;50.984;3.538;2023-04-01T18:01:34;100670.50;;;12.22;74.26
47716;BME280;33476;50.984;3.538;2023-04-01T18:04:11;100686.66;;;12.15;74.13
47716;BME280;33476;50.984;3.538;2023-04-01T18:17:43;100710.13;;;12.16;73.71
47716;BME280;33476;50.984;3.538;2023-04-01T18:20:16;100712.31;;;12.24;73.20
47716;BME280;33476;50.984;3.538;2023-04-01T18:22:48;100710.13;;;12.16;73.33
47716;BME280;33476;50.984;3.538;2023-04-01T18:25:38;100729.47;;;12.14;73.56
47716;BME280;33476;50.984;3.538;2023-04-01T18:30:32;100733.84;;;12.13;73.18
47716;BME280;33476;50.984;3.538;2023-04-01T18:33:01;100739.00;;;12.15;73.09
47716;BME280;33476;50.984;3.538;2023-04-01T18:38:35;100748.81;;;12.11;73.07
47716;BME280;33476;50.984;3.538;2023-04-01T18:41:15;100756.81;;;12.08;72.60
47716;BME280;33476;50.984;3.538;2023-04-01T18:43:48;100754.47;;;12.03;72.85
47716;BME280;33476;50.984;3.538;2023-04-01T18:46:39;100766.91;;;12.00;72.95
47716;BME280;33476;50.984;3.538;2023-04-01T18:49:21;100770.50;;;11.97;72.89
47716;BME280;33476;50.984;3.538;2023-04-01T18:51:54;100773.22;;;11.96;72.87
47716;BME280;33476;50.984;3.538;2023-04-01T18:57:17;100780.88;;;11.99;72.70
47716;BME280;33476;50.984;3.538;2023-04-01T19:00:08;100789.84;;;11.95;72.67
47716;BME280;33476;50.984;3.538;2023-04-01T19:02:46;100793.31;;;11.95;72.72
47716;BME280;33476;50.984;3.538;2023-04-01T19:05:21;100794.25;;;11.94;72.97
47716;BME280;33476;50.984;3.538;2023-04-01T19:07:50;100799.31;;;11.97;73.00
47716;BME280;33476;50.984;3.538;2023-04-01T19:10:40;100799.72;;;11.90;73.17
47716;BME280;33476;50.984;3.538;2023-04-01T19:13:17;100807.75;;;11.87;73.03
47716;BME280;33476;50.984;3.538;2023-04-01T19:21:37;100827.75;;;11.88;73.19
47716;BME280;33476;50.984;3.538;2023-04-01T19:43:52;100861.84;;;11.69;73.60
47716;BME280;33476;50.984;3.538;2023-04-01T19:46:32;100859.78;;;11.75;73.35
47716;BME280;33476;50.984;3.538;2023-04-01T19:49:07;100863.22;;;11.76;73.06
47716;BME280;33476;50.984;3.538;2023-04-01T19:52:05;100868.53;;;11.74;73.06
47716;BME280;33476;50.984;3.538;2023-04-01T20:00:07;100886.84;;;11.74;73.24
47716;BME280;33476;50.984;3.538;2023-04-01T20:05:46;100897.09;;;11.79;72.95
47716;BME280;33476;50.984;3.538;2023-04-01T20:08:16;100895.16;;;11.82;72.82
47716;BME280;33476;50.984;3.538;2023-04-01T20:13:55;100907.00;;;11.72;73.25
47716;BME280;33476;50.984;3.538;2023-04-01T20:19:28;100913.63;;;11.79;72.95
47716;BME280;33476;50.984;3.538;2023-04-01T20:21:59;100927.63;;;11.78;72.82
47716;BME280;33476;50.984;3.538;2023-04-01T20:24:41;100919.97;;;11.75;73.10
47716;BME280;33476;50.984;3.538;2023-04-01T20:35:30;100939.97;;;11.59;73.30
47716;BME280;33476;50.984;3.538;2023-04-01T20:41:23;100950.34;;;11.61;73.22